createdAt,value
2023-02-17T00:00:01.005Z,51.44
2023-02-17T00:02:42.826Z,51.39
2023-02-17T00:05:22.996Z,51.37
2023-02-17T00:07:54.947Z,51.21
2023-02-17T00:10:26.385Z,51.19
2023-02-17T00:13:06.548Z,51.19
2023-02-17T00:15:50.150Z,51.48
2023-02-17T00:18:35.059Z,51.25
2023-02-17T00:21:29.644Z,51.30
2023-02-17T00:24:12.529Z,51.44
2023-02-17T00:26:54.961Z,51.26
2023-02-17T00:29:35.728Z,51.31
2023-02-17T00:32:13.347Z,51.53
2023-02-17T00:34:57.182Z,51.29
2023-02-17T00:37:36.727Z,51.61
2023-02-17T00:40:25.030Z,51.69
2023-02-17T00:43:04.916Z,51.77
2023-02-17T00:45:50.311Z,51.55
2023-02-17T00:48:24.401Z,52.08
2023-02-17T00:54:23.817Z,51.92
2023-02-17T00:56:56.999Z,51.80
2023-02-17T00:59:57.709Z,51.83
2023-02-17T01:02:27.566Z,51.75
2023-02-17T01:04:55.232Z,51.67
2023-02-17T01:07:25.645Z,52.04
2023-02-17T01:09:56.595Z,51.65
2023-02-17T01:12:23.921Z,51.65
2023-02-17T01:14:54.392Z,51.77
2023-02-17T01:17:26.961Z,51.77
2023-02-17T01:19:58.233Z,51.74
2023-02-17T01:22:28.510Z,51.85
2023-02-17T01:24:56.715Z,51.73
2023-02-17T01:27:28.096Z,52.14
2023-02-17T01:29:58.194Z,51.88
2023-02-17T01:32:28.448Z,52.01
2023-02-17T01:34:55.806Z,51.80
2023-02-17T01:37:24.847Z,51.88
2023-02-17T01:39:54.702Z,51.48
2023-02-17T01:42:25.877Z,51.88
2023-02-17T01:45:18.044Z,51.98
2023-02-17T01:47:49.175Z,51.17
2023-02-17T01:50:17.326Z,51.39
2023-02-17T01:52:45.324Z,51.41
2023-02-17T01:55:16.560Z,51.34
2023-02-17T01:57:46.356Z,51.71
2023-02-17T02:00:20.960Z,51.35
2023-02-17T02:03:04.042Z,51.48
2023-02-17T02:05:37.642Z,51.50
2023-02-17T02:08:10.779Z,51.58
2023-02-17T02:10:44.383Z,51.39
2023-02-17T02:13:14.366Z,51.34
2023-02-17T02:15:59.475Z,51.64
2023-02-17T02:18:42.476Z,51.94
2023-02-17T02:21:29.776Z,52.12
2023-02-17T02:24:20.918Z,51.56
2023-02-17T02:27:25.931Z,51.99
2023-02-17T02:30:43.089Z,51.90
2023-02-17T02:33:50.211Z,51.86
2023-02-17T02:36:59.900Z,51.72
2023-02-17T02:39:36.997Z,51.53
2023-02-17T02:42:22.078Z,51.41
2023-02-17T02:44:59.770Z,51.08
2023-02-17T02:47:52.916Z,51.75
2023-02-17T02:50:43.736Z,51.32
2023-02-17T02:53:42.340Z,51.49
2023-02-17T02:56:33.569Z,51.55
2023-02-17T02:59:46.367Z,51.13
2023-02-17T03:02:46.390Z,51.37
2023-02-17T03:05:43.012Z,51.43
2023-02-17T03:08:20.705Z,51.21
2023-02-17T03:11:08.199Z,50.84
2023-02-17T03:13:55.044Z,50.68
2023-02-17T03:16:25.356Z,50.63
2023-02-17T03:19:09.845Z,50.82
2023-02-17T03:21:59.437Z,50.53
2023-02-17T03:24:29.648Z,50.17
2023-02-17T03:27:09.797Z,50.28
2023-02-17T03:29:46.575Z,49.88
2023-02-17T03:32:34.731Z,49.94
2023-02-17T03:35:10.430Z,49.78
2023-02-17T03:37:45.414Z,49.57
2023-02-17T03:43:23.017Z,49.68
2023-02-17T03:45:52.758Z,49.75
2023-02-17T03:48:22.420Z,49.48
2023-02-17T03:50:55.158Z,49.90
2023-02-17T03:53:44.247Z,50.03
2023-02-17T03:56:18.021Z,50.09
2023-02-17T03:58:45.236Z,50.02
2023-02-17T04:01:24.933Z,50.46
2023-02-17T04:03:52.810Z,50.69
2023-02-17T04:06:20.224Z,50.09
2023-02-17T04:08:48.598Z,50.01
2023-02-17T04:11:16.251Z,49.91
2023-02-17T04:13:44.104Z,49.72
2023-02-17T04:16:17.393Z,49.36
2023-02-17T04:18:57.185Z,49.57
2023-02-17T04:21:29.126Z,49.64
2023-02-17T04:24:05.513Z,49.06
2023-02-17T04:26:33.172Z,49.47
2023-02-17T04:29:00.745Z,49.04
2023-02-17T04:31:33.068Z,48.95
2023-02-17T04:34:00.899Z,49.17
2023-02-17T04:36:28.691Z,49.23
2023-02-17T04:39:03.969Z,49.37
2023-02-17T04:41:31.499Z,48.88
2023-02-17T04:44:06.604Z,49.13
2023-02-17T04:46:34.636Z,48.93
2023-02-17T04:49:02.164Z,48.93
2023-02-17T04:51:38.521Z,48.90
2023-02-17T04:54:09.207Z,49.09
2023-02-17T04:56:36.815Z,49.33
2023-02-17T04:59:06.570Z,49.17
2023-02-17T05:01:36.580Z,49.52
2023-02-17T05:04:10.158Z,48.92
2023-02-17T05:06:53.444Z,49.17
2023-02-17T05:09:36.365Z,49.04
2023-02-17T05:12:10.943Z,49.21
2023-02-17T05:14:44.572Z,49.03
2023-02-17T05:17:19.104Z,49.25
2023-02-17T05:19:54.769Z,48.94
2023-02-17T05:22:35.208Z,49.31
2023-02-17T05:25:05.862Z,49.20
2023-02-17T05:27:47.725Z,48.85
2023-02-17T05:33:07.040Z,49.16
2023-02-17T05:35:42.172Z,49.11
2023-02-17T05:38:28.356Z,49.08
2023-02-17T05:41:07.512Z,48.80
2023-02-17T05:43:40.787Z,49.07
2023-02-17T05:46:08.538Z,49.39
2023-02-17T05:49:01.161Z,49.01
2023-02-17T05:51:44.695Z,49.05
2023-02-17T05:54:29.332Z,49.13
2023-02-17T05:57:05.181Z,48.94
2023-02-17T05:59:42.576Z,48.76
2023-02-17T06:02:23.162Z,48.94
2023-02-17T06:05:34.215Z,48.95
2023-02-17T06:08:18.061Z,49.07
2023-02-17T06:10:58.003Z,49.08
2023-02-17T06:13:26.821Z,49.18
2023-02-17T06:16:11.262Z,49.33
2023-02-17T06:19:01.905Z,49.01
2023-02-17T06:21:38.101Z,49.43
2023-02-17T06:24:18.748Z,49.31
2023-02-17T06:26:56.066Z,49.34
2023-02-17T06:29:29.063Z,49.06
2023-02-17T06:31:56.489Z,48.95
2023-02-17T06:34:24.002Z,48.86
2023-02-17T06:36:51.339Z,48.80
2023-02-17T06:39:21.751Z,50.75
2023-02-17T06:41:48.970Z,50.68
2023-02-17T06:44:22.792Z,49.40
2023-02-17T06:46:57.653Z,48.91
2023-02-17T06:49:25.093Z,48.69
2023-02-17T06:51:52.326Z,48.63
2023-02-17T06:54:25.034Z,48.94
2023-02-17T06:56:55.330Z,49.16
2023-02-17T06:59:22.844Z,49.23
2023-02-17T07:01:50.790Z,48.81
2023-02-17T07:04:24.561Z,48.86
2023-02-17T07:06:52.041Z,49.01
2023-02-17T07:09:31.237Z,48.57
2023-02-17T07:12:00.141Z,48.72
2023-02-17T07:14:35.340Z,48.36
2023-02-17T07:17:16.939Z,48.26
2023-02-17T07:19:47.295Z,48.36
2023-02-17T07:22:21.712Z,48.35
2023-02-17T07:24:52.545Z,48.36
2023-02-17T07:27:20.211Z,48.29
2023-02-17T07:29:50.193Z,48.37
2023-02-17T07:32:17.712Z,47.99
2023-02-17T07:34:56.934Z,48.91
2023-02-17T07:37:27.173Z,48.17
2023-02-17T07:39:54.616Z,48.43
2023-02-17T07:42:28.849Z,48.17
2023-02-17T07:45:15.839Z,48.31
2023-02-17T07:47:45.639Z,48.85
2023-02-17T07:50:17.994Z,48.40
2023-02-17T07:52:53.165Z,48.20
2023-02-17T07:55:26.167Z,48.31
2023-02-17T07:57:57.754Z,48.30
2023-02-17T08:00:54.190Z,48.09
2023-02-17T08:03:25.296Z,47.58
2023-02-17T08:05:53.454Z,47.92
2023-02-17T08:08:44.659Z,47.65
2023-02-17T08:11:38.575Z,47.39
2023-02-17T08:14:17.408Z,47.42
2023-02-17T08:16:46.804Z,47.31
2023-02-17T08:19:17.268Z,47.18
2023-02-17T08:21:48.011Z,47.01
2023-02-17T08:24:35.277Z,47.20
2023-02-17T08:27:02.507Z,47.21
2023-02-17T08:29:31.933Z,47.21
2023-02-17T08:32:01.561Z,47.44
2023-02-17T08:34:47.625Z,47.31
2023-02-17T08:37:22.721Z,47.17
2023-02-17T08:39:57.761Z,46.44
2023-02-17T08:42:35.084Z,45.57
2023-02-17T08:45:06.786Z,45.22
2023-02-17T08:47:40.677Z,44.08
2023-02-17T08:50:23.087Z,43.28
2023-02-17T08:52:56.383Z,42.10
2023-02-17T08:55:47.299Z,41.01
2023-02-17T08:58:20.951Z,40.90
2023-02-17T09:00:48.394Z,40.50
2023-02-17T09:03:21.633Z,39.81
2023-02-17T09:05:51.475Z,39.71
2023-02-17T09:08:28.750Z,38.48
2023-02-17T09:11:02.272Z,38.26
2023-02-17T09:13:38.554Z,38.19
2023-02-17T09:16:52.506Z,36.57
2023-02-17T09:19:20.192Z,37.54
2023-02-17T09:21:56.044Z,35.91
2023-02-17T09:24:33.369Z,36.16
2023-02-17T09:27:07.669Z,35.70
2023-02-17T09:29:39.277Z,35.23
2023-02-17T09:32:12.406Z,34.94
2023-02-17T09:34:45.027Z,35.02
2023-02-17T09:37:13.885Z,34.60
2023-02-17T09:39:47.506Z,33.61
2023-02-17T09:42:32.717Z,33.11
2023-02-17T09:45:09.111Z,33.06
2023-02-17T09:47:56.461Z,31.81
2023-02-17T09:50:39.099Z,31.76
2023-02-17T09:53:32.553Z,30.98
2023-02-17T09:56:16.720Z,30.70
2023-02-17T10:01:59.506Z,31.18
2023-02-17T10:04:53.014Z,29.97
2023-02-17T10:08:05.476Z,30.12
2023-02-17T10:11:03.769Z,29.42
2023-02-17T10:13:39.904Z,29.80
2023-02-17T10:17:00.749Z,28.73
2023-02-17T10:20:31.218Z,28.36
2023-02-17T10:26:44.960Z,27.80
2023-02-17T10:29:40.887Z,27.53
2023-02-17T10:32:31.992Z,26.97
2023-02-17T10:43:58.806Z,27.29
2023-02-17T10:46:38.163Z,25.92
2023-02-17T10:49:07.894Z,26.19
2023-02-17T10:51:39.461Z,25.33
2023-02-17T10:54:23.520Z,25.13
2023-02-17T10:57:05.665Z,25.00
2023-02-17T10:59:44.065Z,24.22
2023-02-17T11:02:35.802Z,23.79
2023-02-17T11:05:06.608Z,23.86
2023-02-17T11:07:46.979Z,24.19
2023-02-17T11:10:32.759Z,23.07
2023-02-17T11:13:11.527Z,23.56
2023-02-17T11:18:32.103Z,23.21
2023-02-17T11:21:08.371Z,22.32
2023-02-17T11:23:36.887Z,22.95
2023-02-17T11:26:25.184Z,21.81
2023-02-17T11:28:57.769Z,22.91
2023-02-17T11:31:40.354Z,21.64
2023-02-17T11:34:26.477Z,21.35
2023-02-17T11:39:51.468Z,21.78
2023-02-17T11:42:41.037Z,21.46
2023-02-17T11:45:22.899Z,21.41
2023-02-17T11:48:27.759Z,21.17
2023-02-17T11:51:16.023Z,20.48
2023-02-17T11:53:55.156Z,21.31
2023-02-17T11:57:10.114Z,19.75
2023-02-17T12:03:23.182Z,19.89
2023-02-17T12:06:18.583Z,20.96
2023-02-17T12:09:13.862Z,21.76
2023-02-17T12:12:25.316Z,20.13
2023-02-17T12:15:36.591Z,19.92
2023-02-17T12:18:56.413Z,21.04
2023-02-17T12:21:40.534Z,20.47
2023-02-17T12:24:46.702Z,18.27
2023-02-17T12:27:41.621Z,18.69
2023-02-17T12:33:32.218Z,18.66
2023-02-17T12:36:06.645Z,19.58
2023-02-17T12:39:08.543Z,20.08
2023-02-17T12:41:54.519Z,19.86
2023-02-17T12:44:58.969Z,20.01
2023-02-17T12:48:22.805Z,23.33
2023-02-17T12:51:14.776Z,24.09
2023-02-17T12:54:05.736Z,24.33
2023-02-17T12:56:55.658Z,24.36
2023-02-17T12:59:55.364Z,22.83
2023-02-17T13:02:41.094Z,22.21
2023-02-17T13:05:29.922Z,22.42
2023-02-17T13:08:26.164Z,22.29
2023-02-17T13:11:35.514Z,22.17
2023-02-17T13:15:10.399Z,22.59
2023-02-17T13:18:23.145Z,21.72
2023-02-17T13:21:44.686Z,21.81
2023-02-17T13:25:07.946Z,22.32
2023-02-17T13:28:09.888Z,22.03
2023-02-17T13:31:18.558Z,21.86
2023-02-17T13:34:29.372Z,21.22
2023-02-17T13:37:41.749Z,22.25
2023-02-17T13:40:34.157Z,21.37
2023-02-17T13:43:27.179Z,21.73
2023-02-17T13:46:21.617Z,22.77
2023-02-17T13:49:41.362Z,22.38
2023-02-17T13:52:51.627Z,22.14
2023-02-17T13:55:52.302Z,21.18
2023-02-17T13:59:15.503Z,21.33
2023-02-17T14:01:59.661Z,19.64
2023-02-17T14:04:46.944Z,20.50
2023-02-17T14:10:44.966Z,23.66
2023-02-17T14:13:26.164Z,23.23
2023-02-17T14:16:52.170Z,22.35
2023-02-17T14:19:47.983Z,21.74
2023-02-17T14:23:13.612Z,21.79
2023-02-17T14:26:09.333Z,22.07
2023-02-17T14:29:05.126Z,23.51
2023-02-17T14:31:52.710Z,22.75
2023-02-17T14:34:55.706Z,23.17
2023-02-17T14:37:32.269Z,22.57
2023-02-17T14:40:29.799Z,22.69
2023-02-17T14:43:18.588Z,23.06
2023-02-17T14:45:54.327Z,23.49
2023-02-17T14:48:44.114Z,23.15
2023-02-17T14:52:09.786Z,22.09
2023-02-17T15:02:25.473Z,23.94
2023-02-17T15:05:15.772Z,25.08
2023-02-17T15:08:35.783Z,24.49
2023-02-17T15:11:29.129Z,26.12
2023-02-17T15:14:15.607Z,26.34
2023-02-17T15:17:21.785Z,25.37
2023-02-17T15:20:34.937Z,26.23
2023-02-17T15:23:44.614Z,27.33
2023-02-17T15:26:43.731Z,27.85
2023-02-17T15:29:35.925Z,27.57
2023-02-17T15:35:36.338Z,28.40
2023-02-17T15:38:26.104Z,29.48
2023-02-17T15:41:30.620Z,29.34
2023-02-17T15:44:25.070Z,29.76
2023-02-17T15:47:07.182Z,31.58
2023-02-17T15:49:39.190Z,30.53
2023-02-17T15:52:23.468Z,31.97
2023-02-17T15:54:51.211Z,30.09
2023-02-17T15:57:33.685Z,30.58
2023-02-17T16:00:22.368Z,31.67
2023-02-17T16:03:23.021Z,31.25
2023-02-17T16:06:06.066Z,31.72
2023-02-17T16:08:42.149Z,32.08
2023-02-17T16:11:35.724Z,31.72
2023-02-17T16:14:27.874Z,32.19
2023-02-17T16:17:00.516Z,31.55
2023-02-17T16:22:19.467Z,32.67
2023-02-17T16:27:58.051Z,32.48
2023-02-17T16:30:52.539Z,32.27
2023-02-17T16:33:28.095Z,32.45
2023-02-17T16:36:11.575Z,30.86
2023-02-17T16:38:44.161Z,30.57
2023-02-17T16:41:24.735Z,30.03
2023-02-17T16:43:54.962Z,30.00
2023-02-17T16:46:45.510Z,29.43
2023-02-17T16:49:51.075Z,29.23
2023-02-17T16:55:47.016Z,28.86
2023-02-17T17:07:13.199Z,29.37
2023-02-17T17:10:15.764Z,29.37
2023-02-17T17:12:56.607Z,29.61
2023-02-17T17:15:52.656Z,30.15
2023-02-17T17:18:31.472Z,30.11
2023-02-17T17:21:13.909Z,29.66
2023-02-17T17:24:14.519Z,29.29
2023-02-17T17:26:57.514Z,30.21
2023-02-17T17:29:28.899Z,30.63
2023-02-17T17:32:00.682Z,30.38
2023-02-17T17:34:40.725Z,30.27
2023-02-17T17:37:14.710Z,31.19
2023-02-17T17:39:54.067Z,31.06
2023-02-17T17:42:40.511Z,30.24
2023-02-17T17:45:11.531Z,30.21
2023-02-17T17:48:00.261Z,30.47
2023-02-17T17:50:34.442Z,30.81
2023-02-17T17:53:01.788Z,31.46
2023-02-17T17:55:32.673Z,31.30
2023-02-17T17:58:06.320Z,31.41
2023-02-17T18:00:34.102Z,31.25
2023-02-17T18:03:03.915Z,31.36
2023-02-17T18:05:37.543Z,31.15
2023-02-17T18:08:11.270Z,31.66
2023-02-17T18:11:01.140Z,30.98
2023-02-17T18:13:31.884Z,32.35
2023-02-17T18:16:05.667Z,31.99
2023-02-17T18:18:40.795Z,31.53
2023-02-17T18:21:11.098Z,31.72
2023-02-17T18:23:45.618Z,31.65
2023-02-17T18:26:19.295Z,31.43
2023-02-17T18:34:54.066Z,31.85
2023-02-17T18:38:07.556Z,31.57
2023-02-17T18:40:48.763Z,31.29
2023-02-17T18:43:20.043Z,31.42
2023-02-17T18:46:00.577Z,31.65
2023-02-17T18:48:48.951Z,31.63
2023-02-17T18:51:33.996Z,31.89
2023-02-17T18:54:16.165Z,31.97
2023-02-17T18:57:02.339Z,31.49
2023-02-17T18:59:38.894Z,32.54
2023-02-17T19:02:16.051Z,32.63
2023-02-17T19:04:48.000Z,32.39
2023-02-17T19:07:21.617Z,32.54
2023-02-17T19:09:53.726Z,32.70
2023-02-17T19:12:29.863Z,32.86
2023-02-17T19:15:18.124Z,33.18
2023-02-17T19:21:12.601Z,33.56
2023-02-17T19:23:58.869Z,33.56
2023-02-17T19:26:49.431Z,33.67
2023-02-17T19:29:27.138Z,33.24
2023-02-17T19:32:06.586Z,33.65
2023-02-17T19:34:43.838Z,33.75
2023-02-17T19:37:21.147Z,33.57
2023-02-17T19:39:55.406Z,33.73
2023-02-17T19:42:59.411Z,34.21
2023-02-17T19:45:45.819Z,34.61
2023-02-17T19:48:36.664Z,34.67
2023-02-17T19:52:03.733Z,34.60
2023-02-17T19:55:31.352Z,35.11
2023-02-17T19:58:25.510Z,34.95
2023-02-17T20:03:52.112Z,34.42
2023-02-17T20:06:42.052Z,34.77
2023-02-17T20:09:30.910Z,35.10
2023-02-17T20:12:04.443Z,35.02
2023-02-17T20:14:46.809Z,35.21
2023-02-17T20:17:30.912Z,35.14
2023-02-17T20:20:13.423Z,35.13
2023-02-17T20:23:20.713Z,35.32
2023-02-17T20:26:56.547Z,34.98
2023-02-17T20:29:47.097Z,35.27
2023-02-17T20:32:51.427Z,35.25
2023-02-17T20:39:48.214Z,34.87
2023-02-17T20:53:30.847Z,35.53
2023-02-17T20:56:19.677Z,35.07
2023-02-17T20:59:34.535Z,35.92
2023-02-17T21:07:06.958Z,36.05
2023-02-17T21:10:32.116Z,36.15
2023-02-17T21:14:03.031Z,36.56
2023-02-17T21:21:20.050Z,36.75
2023-02-17T21:24:02.134Z,36.91
2023-02-17T21:30:21.016Z,37.19
2023-02-17T21:34:01.635Z,36.67
2023-02-17T21:40:40.225Z,37.45
2023-02-17T21:44:16.127Z,36.88
2023-02-17T21:47:25.629Z,36.91
2023-02-17T21:51:00.427Z,37.17
2023-02-17T22:04:58.523Z,36.53
2023-02-17T22:08:17.347Z,36.55
2023-02-17T22:15:12.836Z,36.20
2023-02-17T22:18:54.569Z,36.58
2023-02-17T22:22:18.312Z,36.51
2023-02-17T22:28:00.305Z,36.57
2023-02-17T22:37:46.278Z,36.79
2023-02-17T22:40:27.984Z,36.89
2023-02-17T22:43:33.298Z,36.70
2023-02-17T22:52:35.575Z,36.87
2023-02-17T22:55:25.114Z,37.05
2023-02-17T22:58:03.832Z,37.03
2023-02-17T23:01:08.138Z,36.79
2023-02-17T23:03:43.452Z,37.17
2023-02-17T23:09:30.100Z,37.06
2023-02-17T23:15:11.538Z,37.49
2023-02-17T23:22:01.571Z,37.36
2023-02-17T23:24:54.042Z,37.44
2023-02-17T23:27:54.254Z,37.44
2023-02-17T23:30:55.577Z,37.44
2023-02-17T23:33:48.175Z,37.25
2023-02-17T23:40:33.659Z,37.22
2023-02-17T23:46:58.102Z,37.20
2023-02-17T23:49:40.326Z,36.89
2023-02-17T23:53:07.093Z,37.18
2023-02-17T23:55:42.870Z,36.61
2023-02-17T23:58:27.737Z,36.72
